Terminal Aerodrome Forecast
Issued by NWS

Home | Current Version | Previous Version | Text Only | Print | Product List | Glossary On
Versions: 1 2 3 4 5 6 7 8 9 10 11 12 13 14 15 16 17 18 19 20 21 22
000
FTUS43 KPAH 152100 AAB
TAFCGI
TAF AMD
KCGI 152117Z 1521/1618 18008KT 3SM BR OVC005
      TEMPO 1522/1601 6SM BR SCT005 BKN015
     FM160100 23010KT P6SM BKN030
     FM160300 26008KT P6SM OVC015
     FM161500 28013G20KT P6SM BKN020=

USA.gov is the U.S. government's official web portal to all federal, state and local government web resources and services.